sensor_id;sensor_type;location;lat;lon;timestamp;temperature;humidity
40077;DHT22;25777;47.824;18.982;2022-10-17T00:02:03;8.30;99.90
40077;DHT22;25777;47.824;18.982;2022-10-17T00:04:28;8.30;99.90
40077;DHT22;25777;47.824;18.982;2022-10-17T00:06:54;8.40;99.90
40077;DHT22;25777;47.824;18.982;2022-10-17T00:09:20;8.40;99.90
40077;DHT22;25777;47.824;18.982;2022-10-17T00:11:46;8.20;99.90
40077;DHT22;25777;47.824;18.982;2022-10-17T00:14:11;8.30;99.90
40077;DHT22;25777;47.824;18.982;2022-10-17T00:16:37;8.20;99.90
40077;DHT22;25777;47.824;18.982;2022-10-17T00:19:04;8.20;99.90
40077;DHT22;25777;47.824;18.982;2022-10-17T00:21:31;8.10;99.90
40077;DHT22;25777;47.824;18.982;2022-10-17T00:23:58;8.20;99.90
40077;DHT22;25777;47.824;18.982;2022-10-17T00:26:25;8.10;99.90
40077;DHT22;25777;47.824;18.982;2022-10-17T00:28:52;8.10;99.90
40077;DHT22;25777;47.824;18.982;2022-10-17T00:31:19;8.20;99.90
40077;DHT22;25777;47.824;18.982;2022-10-17T00:33:46;8.10;99.90
40077;DHT22;25777;47.824;18.982;2022-10-17T00:36:15;8.20;99.90
40077;DHT22;25777;47.824;18.982;2022-10-17T00:38:43;8.10;99.90
40077;DHT22;25777;47.824;18.982;2022-10-17T00:41:11;8.00;99.90
40077;DHT22;25777;47.824;18.982;2022-10-17T00:43:57;8.10;99.90
40077;DHT22;25777;47.824;18.982;2022-10-17T00:46:27;8.10;99.90
40077;DHT22;25777;47.824;18.982;2022-10-17T00:48:54;8.00;99.90
40077;DHT22;25777;47.824;18.982;2022-10-17T00:51:25;8.00;99.90
40077;DHT22;25777;47.824;18.982;2022-10-17T00:53:52;8.00;99.90
40077;DHT22;25777;47.824;18.982;2022-10-17T00:56:20;8.00;99.90
40077;DHT22;25777;47.824;18.982;2022-10-17T00:58:46;8.00;99.90
40077;DHT22;25777;47.824;18.982;2022-10-17T01:01:12;8.00;99.90
40077;DHT22;25777;47.824;18.982;2022-10-17T01:03:38;7.90;99.90
40077;DHT22;25777;47.824;18.982;2022-10-17T01:06:04;7.80;99.90
40077;DHT22;25777;47.824;18.982;2022-10-17T01:08:30;7.80;99.90
40077;DHT22;25777;47.824;18.982;2022-10-17T01:13:53;7.90;99.90
40077;DHT22;25777;47.824;18.982;2022-10-17T01:16:53;7.90;99.90
40077;DHT22;25777;47.824;18.982;2022-10-17T01:22:34;8.00;99.90
40077;DHT22;25777;47.824;18.982;2022-10-17T01:28:24;7.90;99.90
40077;DHT22;25777;47.824;18.982;2022-10-17T01:31:11;7.90;99.90
40077;DHT22;25777;47.824;18.982;2022-10-17T01:33:43;8.00;99.90
40077;DHT22;25777;47.824;18.982;2022-10-17T01:39:13;7.90;99.90
40077;DHT22;25777;47.824;18.982;2022-10-17T01:42:00;7.80;99.90
40077;DHT22;25777;47.824;18.982;2022-10-17T01:47:08;8.00;99.90
40077;DHT22;25777;47.824;18.982;2022-10-17T01:49:39;7.90;99.90
40077;DHT22;25777;47.824;18.982;2022-10-17T01:52:28;7.80;99.90
40077;DHT22;25777;47.824;18.982;2022-10-17T01:55:10;7.80;99.90
40077;DHT22;25777;47.824;18.982;2022-10-17T01:57:40;7.70;99.90
40077;DHT22;25777;47.824;18.982;2022-10-17T02:00:11;7.70;99.90
40077;DHT22;25777;47.824;18.982;2022-10-17T02:02:38;7.60;99.90
40077;DHT22;25777;47.824;18.982;2022-10-17T02:05:06;7.60;99.90
40077;DHT22;25777;47.824;18.982;2022-10-17T02:07:32;7.50;99.90
40077;DHT22;25777;47.824;18.982;2022-10-17T02:09:58;7.40;99.90
40077;DHT22;25777;47.824;18.982;2022-10-17T02:12:41;7.50;99.90
40077;DHT22;25777;47.824;18.982;2022-10-17T02:18:18;7.60;99.90
40077;DHT22;25777;47.824;18.982;2022-10-17T02:21:00;7.60;99.90
40077;DHT22;25777;47.824;18.982;2022-10-17T02:23:41;7.50;99.90
40077;DHT22;25777;47.824;18.982;2022-10-17T02:31:48;7.60;99.90
40077;DHT22;25777;47.824;18.982;2022-10-17T02:34:41;7.60;99.90
40077;DHT22;25777;47.824;18.982;2022-10-17T02:37:09;7.60;99.90
40077;DHT22;25777;47.824;18.982;2022-10-17T02:39:37;7.60;99.90
40077;DHT22;25777;47.824;18.982;2022-10-17T02:42:07;7.40;99.90
40077;DHT22;25777;47.824;18.982;2022-10-17T02:44:37;7.40;99.90
40077;DHT22;25777;47.824;18.982;2022-10-17T02:49:43;7.30;99.90
40077;DHT22;25777;47.824;18.982;2022-10-17T02:52:18;7.30;99.90
40077;DHT22;25777;47.824;18.982;2022-10-17T02:57:41;7.30;99.90
40077;DHT22;25777;47.824;18.982;2022-10-17T03:00:11;7.30;99.90
40077;DHT22;25777;47.824;18.982;2022-10-17T03:02:43;7.20;99.90
40077;DHT22;25777;47.824;18.982;2022-10-17T03:05:11;7.10;99.90
40077;DHT22;25777;47.824;18.982;2022-10-17T03:07:37;7.10;99.90
40077;DHT22;25777;47.824;18.982;2022-10-17T03:10:04;7.10;99.90
40077;DHT22;25777;47.824;18.982;2022-10-17T03:12:30;7.10;99.90
40077;DHT22;25777;47.824;18.982;2022-10-17T03:14:55;7.10;99.90
40077;DHT22;25777;47.824;18.982;2022-10-17T03:17:21;7.10;99.90
40077;DHT22;25777;47.824;18.982;2022-10-17T03:19:47;7.30;99.90
40077;DHT22;25777;47.824;18.982;2022-10-17T03:22:13;7.30;99.90
40077;DHT22;25777;47.824;18.982;2022-10-17T03:24:38;7.20;99.90
40077;DHT22;25777;47.824;18.982;2022-10-17T03:27:04;7.30;99.90
40077;DHT22;25777;47.824;18.982;2022-10-17T03:29:30;7.30;99.90
40077;DHT22;25777;47.824;18.982;2022-10-17T03:31:56;7.40;99.90
40077;DHT22;25777;47.824;18.982;2022-10-17T03:34:22;7.20;99.90
40077;DHT22;25777;47.824;18.982;2022-10-17T03:36:48;7.10;99.90
40077;DHT22;25777;47.824;18.982;2022-10-17T03:39:13;7.10;99.90
40077;DHT22;25777;47.824;18.982;2022-10-17T03:41:39;7.20;99.90
40077;DHT22;25777;47.824;18.982;2022-10-17T03:44:05;7.10;99.90
40077;DHT22;25777;47.824;18.982;2022-10-17T03:46:31;7.10;99.90
40077;DHT22;25777;47.824;18.982;2022-10-17T03:48:56;7.10;99.90
40077;DHT22;25777;47.824;18.982;2022-10-17T03:51:22;7.10;99.90
40077;DHT22;25777;47.824;18.982;2022-10-17T03:53:48;7.00;99.90
40077;DHT22;25777;47.824;18.982;2022-10-17T03:56:19;7.00;99.90
40077;DHT22;25777;47.824;18.982;2022-10-17T03:58:45;7.00;99.90
40077;DHT22;25777;47.824;18.982;2022-10-17T04:01:13;7.00;99.90
40077;DHT22;25777;47.824;18.982;2022-10-17T04:03:40;7.10;99.90
40077;DHT22;25777;47.824;18.982;2022-10-17T04:06:06;7.00;99.90
40077;DHT22;25777;47.824;18.982;2022-10-17T04:08:33;6.90;99.90
40077;DHT22;25777;47.824;18.982;2022-10-17T04:11:00;6.90;99.90
40077;DHT22;25777;47.824;18.982;2022-10-17T04:13:27;7.00;99.90
40077;DHT22;25777;47.824;18.982;2022-10-17T04:15:58;6.90;99.90
40077;DHT22;25777;47.824;18.982;2022-10-17T04:18:24;6.80;99.90
40077;DHT22;25777;47.824;18.982;2022-10-17T04:20:50;6.80;99.90
40077;DHT22;25777;47.824;18.982;2022-10-17T04:23:16;6.90;99.90
40077;DHT22;25777;47.824;18.982;2022-10-17T04:25:42;6.90;99.90
40077;DHT22;25777;47.824;18.982;2022-10-17T04:28:08;6.90;99.90
40077;DHT22;25777;47.824;18.982;2022-10-17T04:30:33;6.80;99.90
40077;DHT22;25777;47.824;18.982;2022-10-17T04:32:59;6.80;99.90
40077;DHT22;25777;47.824;18.982;2022-10-17T04:35:25;6.80;99.90
40077;DHT22;25777;47.824;18.982;2022-10-17T04:37:51;6.80;99.90
40077;DHT22;25777;47.824;18.982;2022-10-17T04:40:17;6.80;99.90
40077;DHT22;25777;47.824;18.982;2022-10-17T04:42:42;6.80;99.90
40077;DHT22;25777;47.824;18.982;2022-10-17T04:45:08;6.80;99.90
40077;DHT22;25777;47.824;18.982;2022-10-17T04:47:35;6.80;99.90
40077;DHT22;25777;47.824;18.982;2022-10-17T04:50:01;6.80;99.90
40077;DHT22;25777;47.824;18.982;2022-10-17T04:52:26;7.00;99.90
40077;DHT22;25777;47.824;18.982;2022-10-17T04:54:52;6.80;99.90
40077;DHT22;25777;47.824;18.982;2022-10-17T04:57:18;6.80;99.90
40077;DHT22;25777;47.824;18.982;2022-10-17T04:59:44;6.80;99.90
40077;DHT22;25777;47.824;18.982;2022-10-17T05:02:10;6.90;99.90
40077;DHT22;25777;47.824;18.982;2022-10-17T05:04:36;6.90;99.90
40077;DHT22;25777;47.824;18.982;2022-10-17T05:07:02;6.70;99.90
40077;DHT22;25777;47.824;18.982;2022-10-17T05:09:28;6.70;99.90
40077;DHT22;25777;47.824;18.982;2022-10-17T05:11:54;6.60;99.90
40077;DHT22;25777;47.824;18.982;2022-10-17T05:14:20;6.70;99.90
40077;DHT22;25777;47.824;18.982;2022-10-17T05:16:46;6.70;99.90
40077;DHT22;25777;47.824;18.982;2022-10-17T05:19:12;6.70;99.90
40077;DHT22;25777;47.824;18.982;2022-10-17T05:21:38;6.70;99.90
40077;DHT22;25777;47.824;18.982;2022-10-17T05:24:08;6.90;99.90
40077;DHT22;25777;47.824;18.982;2022-10-17T05:26:34;6.80;99.90
40077;DHT22;25777;47.824;18.982;2022-10-17T05:29:00;6.80;99.90
40077;DHT22;25777;47.824;18.982;2022-10-17T05:31:30;6.70;99.90
40077;DHT22;25777;47.824;18.982;2022-10-17T05:34:02;6.70;99.90
40077;DHT22;25777;47.824;18.982;2022-10-17T05:36:28;6.70;99.90
40077;DHT22;25777;47.824;18.982;2022-10-17T05:38:54;6.80;99.90
40077;DHT22;25777;47.824;18.982;2022-10-17T05:41:20;6.80;99.90
40077;DHT22;25777;47.824;18.982;2022-10-17T05:43:46;6.80;99.90
40077;DHT22;25777;47.824;18.982;2022-10-17T05:46:12;6.90;99.90
40077;DHT22;25777;47.824;18.982;2022-10-17T05:48:38;7.00;99.90
40077;DHT22;25777;47.824;18.982;2022-10-17T05:51:07;7.00;99.90
40077;DHT22;25777;47.824;18.982;2022-10-17T05:53:39;7.20;99.90
40077;DHT22;25777;47.824;18.982;2022-10-17T05:56:07;7.30;99.90
40077;DHT22;25777;47.824;18.982;2022-10-17T05:58:33;7.30;99.90
40077;DHT22;25777;47.824;18.982;2022-10-17T06:01:00;7.30;99.90
40077;DHT22;25777;47.824;18.982;2022-10-17T06:03:27;7.40;99.90
40077;DHT22;25777;47.824;18.982;2022-10-17T06:05:53;7.50;99.90
40077;DHT22;25777;47.824;18.982;2022-10-17T06:08:19;7.60;99.90
40077;DHT22;25777;47.824;18.982;2022-10-17T06:10:48;7.60;99.90
40077;DHT22;25777;47.824;18.982;2022-10-17T06:13:16;7.70;99.90
40077;DHT22;25777;47.824;18.982;2022-10-17T06:15:42;7.80;99.90
40077;DHT22;25777;47.824;18.982;2022-10-17T06:18:09;7.80;99.90
40077;DHT22;25777;47.824;18.982;2022-10-17T06:20:35;8.00;99.90
40077;DHT22;25777;47.824;18.982;2022-10-17T06:23:02;8.10;99.90
40077;DHT22;25777;47.824;18.982;2022-10-17T06:25:32;8.20;99.90
40077;DHT22;25777;47.824;18.982;2022-10-17T06:27:58;8.30;99.90
40077;DHT22;25777;47.824;18.982;2022-10-17T06:30:24;8.40;99.90
40077;DHT22;25777;47.824;18.982;2022-10-17T06:32:51;8.50;99.90
40077;DHT22;25777;47.824;18.982;2022-10-17T06:35:18;8.70;99.90
40077;DHT22;25777;47.824;18.982;2022-10-17T06:37:43;9.00;99.90
40077;DHT22;25777;47.824;18.982;2022-10-17T06:40:10;9.00;99.90
40077;DHT22;25777;47.824;18.982;2022-10-17T06:42:37;9.60;99.90
40077;DHT22;25777;47.824;18.982;2022-10-17T06:45:04;9.80;99.90
40077;DHT22;25777;47.824;18.982;2022-10-17T06:47:30;10.00;99.90
40077;DHT22;25777;47.824;18.982;2022-10-17T06:49:56;10.10;99.90
40077;DHT22;25777;47.824;18.982;2022-10-17T06:52:22;10.20;99.90
40077;DHT22;25777;47.824;18.982;2022-10-17T06:54:47;10.50;99.90
40077;DHT22;25777;47.824;18.982;2022-10-17T06:57:13;10.70;99.90
40077;DHT22;25777;47.824;18.982;2022-10-17T06:59:39;11.00;99.90
40077;DHT22;25777;47.824;18.982;2022-10-17T07:02:05;11.10;99.90
40077;DHT22;25777;47.824;18.982;2022-10-17T07:04:31;11.30;99.90
40077;DHT22;25777;47.824;18.982;2022-10-17T07:06:57;11.40;99.90
40077;DHT22;25777;47.824;18.982;2022-10-17T07:09:23;11.50;99.90
40077;DHT22;25777;47.824;18.982;2022-10-17T07:11:50;11.70;99.90
40077;DHT22;25777;47.824;18.982;2022-10-17T07:14:15;11.80;99.90
40077;DHT22;25777;47.824;18.982;2022-10-17T07:16:41;11.90;99.90
40077;DHT22;25777;47.824;18.982;2022-10-17T07:19:07;11.90;99.90
40077;DHT22;25777;47.824;18.982;2022-10-17T07:21:33;12.10;99.90
40077;DHT22;25777;47.824;18.982;2022-10-17T07:23:59;12.20;99.90
40077;DHT22;25777;47.824;18.982;2022-10-17T07:26:24;12.40;99.90
40077;DHT22;25777;47.824;18.982;2022-10-17T07:28:52;12.50;99.90
40077;DHT22;25777;47.824;18.982;2022-10-17T07:31:19;12.50;99.90
40077;DHT22;25777;47.824;18.982;2022-10-17T07:33:45;12.60;99.90
40077;DHT22;25777;47.824;18.982;2022-10-17T07:36:12;12.70;99.90
40077;DHT22;25777;47.824;18.982;2022-10-17T07:38:38;12.70;99.90
40077;DHT22;25777;47.824;18.982;2022-10-17T07:41:06;12.90;99.90
40077;DHT22;25777;47.824;18.982;2022-10-17T07:43:32;13.00;99.90
40077;DHT22;25777;47.824;18.982;2022-10-17T07:46:00;13.10;99.90
40077;DHT22;25777;47.824;18.982;2022-10-17T07:48:26;13.20;99.90
40077;DHT22;25777;47.824;18.982;2022-10-17T07:50:52;13.40;99.90
40077;DHT22;25777;47.824;18.982;2022-10-17T07:53:18;13.50;99.90
40077;DHT22;25777;47.824;18.982;2022-10-17T07:55:44;13.50;99.90
40077;DHT22;25777;47.824;18.982;2022-10-17T07:58:11;13.50;99.90
40077;DHT22;25777;47.824;18.982;2022-10-17T08:00:37;13.70;99.90
40077;DHT22;25777;47.824;18.982;2022-10-17T08:03:04;13.70;99.90
40077;DHT22;25777;47.824;18.982;2022-10-17T08:05:31;13.90;99.90
40077;DHT22;25777;47.824;18.982;2022-10-17T08:07:56;14.00;99.90
40077;DHT22;25777;47.824;18.982;2022-10-17T08:10:22;14.00;99.90
40077;DHT22;25777;47.824;18.982;2022-10-17T08:12:57;14.10;99.90
40077;DHT22;25777;47.824;18.982;2022-10-17T08:15:24;14.20;99.90
40077;DHT22;25777;47.824;18.982;2022-10-17T08:17:50;14.50;99.90
40077;DHT22;25777;47.824;18.982;2022-10-17T08:20:16;14.50;99.90
40077;DHT22;25777;47.824;18.982;2022-10-17T08:22:42;14.70;99.90
40077;DHT22;25777;47.824;18.982;2022-10-17T08:25:08;14.80;99.90
40077;DHT22;25777;47.824;18.982;2022-10-17T08:27:34;15.00;99.90
40077;DHT22;25777;47.824;18.982;2022-10-17T08:30:01;15.20;99.90
40077;DHT22;25777;47.824;18.982;2022-10-17T08:32:27;15.10;99.90
40077;DHT22;25777;47.824;18.982;2022-10-17T08:34:55;15.10;99.90
40077;DHT22;25777;47.824;18.982;2022-10-17T08:37:23;15.20;99.90
40077;DHT22;25777;47.824;18.982;2022-10-17T08:39:49;15.40;99.90
40077;DHT22;25777;47.824;18.982;2022-10-17T08:47:45;15.60;99.90
40077;DHT22;25777;47.824;18.982;2022-10-17T08:52:48;16.10;99.90
40077;DHT22;25777;47.824;18.982;2022-10-17T08:55:32;16.10;99.90
40077;DHT22;25777;47.824;18.982;2022-10-17T08:58:00;16.20;99.90
40077;DHT22;25777;47.824;18.982;2022-10-17T09:00:28;16.40;99.90
40077;DHT22;25777;47.824;18.982;2022-10-17T09:03:20;16.70;99.90
40077;DHT22;25777;47.824;18.982;2022-10-17T09:06:20;16.90;99.90
40077;DHT22;25777;47.824;18.982;2022-10-17T09:09:02;17.10;99.90
40077;DHT22;25777;47.824;18.982;2022-10-17T09:11:40;17.50;99.90
40077;DHT22;25777;47.824;18.982;2022-10-17T09:20:02;17.10;99.90
40077;DHT22;25777;47.824;18.982;2022-10-17T09:22:28;17.50;99.90
40077;DHT22;25777;47.824;18.982;2022-10-17T09:24:59;17.80;98.50
40077;DHT22;25777;47.824;18.982;2022-10-17T09:27:50;17.80;99.60
40077;DHT22;25777;47.824;18.982;2022-10-17T09:32:54;18.20;98.60
40077;DHT22;25777;47.824;18.982;2022-10-17T09:35:21;17.90;97.30
40077;DHT22;25777;47.824;18.982;2022-10-17T09:37:48;17.70;95.10
40077;DHT22;25777;47.824;18.982;2022-10-17T09:40:32;17.80;96.30
40077;DHT22;25777;47.824;18.982;2022-10-17T09:42:59;18.40;95.10
40077;DHT22;25777;47.824;18.982;2022-10-17T09:45:27;18.80;95.10
40077;DHT22;25777;47.824;18.982;2022-10-17T09:50:47;18.10;96.80
40077;DHT22;25777;47.824;18.982;2022-10-17T09:53:44;18.60;96.00
40077;DHT22;25777;47.824;18.982;2022-10-17T09:56:14;19.00;95.30
40077;DHT22;25777;47.824;18.982;2022-10-17T09:58:50;18.60;93.30
40077;DHT22;25777;47.824;18.982;2022-10-17T10:01:26;18.40;95.80
40077;DHT22;25777;47.824;18.982;2022-10-17T10:04:13;19.00;93.70
40077;DHT22;25777;47.824;18.982;2022-10-17T10:06:40;19.30;93.20
40077;DHT22;25777;47.824;18.982;2022-10-17T10:09:21;19.10;93.40
40077;DHT22;25777;47.824;18.982;2022-10-17T10:11:49;19.00;92.40
40077;DHT22;25777;47.824;18.982;2022-10-17T10:14:20;19.10;90.50
40077;DHT22;25777;47.824;18.982;2022-10-17T10:16:48;19.40;92.60
40077;DHT22;25777;47.824;18.982;2022-10-17T10:19:35;19.10;89.80
40077;DHT22;25777;47.824;18.982;2022-10-17T10:22:21;19.60;92.20
40077;DHT22;25777;47.824;18.982;2022-10-17T10:25:25;20.00;90.40
40077;DHT22;25777;47.824;18.982;2022-10-17T10:27:50;19.60;87.00
40077;DHT22;25777;47.824;18.982;2022-10-17T10:30:24;20.10;90.80
40077;DHT22;25777;47.824;18.982;2022-10-17T10:32:52;20.00;87.30
40077;DHT22;25777;47.824;18.982;2022-10-17T10:35:33;20.20;89.10
40077;DHT22;25777;47.824;18.982;2022-10-17T10:38:02;20.10;85.10
40077;DHT22;25777;47.824;18.982;2022-10-17T10:40:35;19.50;88.90
40077;DHT22;25777;47.824;18.982;2022-10-17T10:43:03;19.70;87.70
40077;DHT22;25777;47.824;18.982;2022-10-17T10:48:23;20.40;86.60
40077;DHT22;25777;47.824;18.982;2022-10-17T11:01:27;20.50;83.80
40077;DHT22;25777;47.824;18.982;2022-10-17T11:04:22;20.20;85.30
40077;DHT22;25777;47.824;18.982;2022-10-17T11:06:52;20.20;83.00
40077;DHT22;25777;47.824;18.982;2022-10-17T11:09:53;20.50;82.60
40077;DHT22;25777;47.824;18.982;2022-10-17T11:18:11;20.80;83.40
40077;DHT22;25777;47.824;18.982;2022-10-17T11:20:57;20.90;82.00
40077;DHT22;25777;47.824;18.982;2022-10-17T11:23:40;20.70;86.10
40077;DHT22;25777;47.824;18.982;2022-10-17T11:26:17;20.70;84.10
40077;DHT22;25777;47.824;18.982;2022-10-17T11:28:52;20.80;82.20
40077;DHT22;25777;47.824;18.982;2022-10-17T11:31:20;20.30;82.30
40077;DHT22;25777;47.824;18.982;2022-10-17T11:36:18;20.20;81.90
40077;DHT22;25777;47.824;18.982;2022-10-17T11:39:01;20.20;82.90
40077;DHT22;25777;47.824;18.982;2022-10-17T11:42:05;20.40;83.80
40077;DHT22;25777;47.824;18.982;2022-10-17T11:44:36;20.30;80.50
40077;DHT22;25777;47.824;18.982;2022-10-17T11:47:25;20.20;80.30
40077;DHT22;25777;47.824;18.982;2022-10-17T11:50:01;20.00;82.30
40077;DHT22;25777;47.824;18.982;2022-10-17T11:52:38;20.10;85.90
40077;DHT22;25777;47.824;18.982;2022-10-17T11:55:17;20.00;83.00
40077;DHT22;25777;47.824;18.982;2022-10-17T12:09:25;19.80;84.70
40077;DHT22;25777;47.824;18.982;2022-10-17T12:11:59;19.60;87.40
40077;DHT22;25777;47.824;18.982;2022-10-17T12:16:59;19.80;81.40
40077;DHT22;25777;47.824;18.982;2022-10-17T12:19:28;19.90;84.00
40077;DHT22;25777;47.824;18.982;2022-10-17T12:22:16;19.90;83.00
40077;DHT22;25777;47.824;18.982;2022-10-17T12:24:54;19.90;79.70
40077;DHT22;25777;47.824;18.982;2022-10-17T12:30:15;19.80;77.80
40077;DHT22;25777;47.824;18.982;2022-10-17T12:35:21;19.70;80.80
40077;DHT22;25777;47.824;18.982;2022-10-17T12:45:58;19.90;76.90
40077;DHT22;25777;47.824;18.982;2022-10-17T12:51:03;19.70;76.80
40077;DHT22;25777;47.824;18.982;2022-10-17T12:56:21;19.60;76.70
40077;DHT22;25777;47.824;18.982;2022-10-17T12:58:55;19.60;82.30
40077;DHT22;25777;47.824;18.982;2022-10-17T13:01:31;19.50;76.50
40077;DHT22;25777;47.824;18.982;2022-10-17T13:03:58;19.50;76.50
40077;DHT22;25777;47.824;18.982;2022-10-17T13:06:31;19.60;76.00
40077;DHT22;25777;47.824;18.982;2022-10-17T13:09:28;19.60;75.00
40077;DHT22;25777;47.824;18.982;2022-10-17T13:11:58;19.20;79.40
40077;DHT22;25777;47.824;18.982;2022-10-17T13:14:26;19.40;76.70
40077;DHT22;25777;47.824;18.982;2022-10-17T13:16:55;19.60;75.70
40077;DHT22;25777;47.824;18.982;2022-10-17T13:19:25;19.80;77.30
40077;DHT22;25777;47.824;18.982;2022-10-17T13:21:59;19.30;76.80
40077;DHT22;25777;47.824;18.982;2022-10-17T13:24:31;19.20;77.30
40077;DHT22;25777;47.824;18.982;2022-10-17T13:26:58;19.20;77.50
40077;DHT22;25777;47.824;18.982;2022-10-17T13:29:25;19.10;79.30
40077;DHT22;25777;47.824;18.982;2022-10-17T13:31:55;19.00;79.10
40077;DHT22;25777;47.824;18.982;2022-10-17T13:34:24;19.10;78.80
40077;DHT22;25777;47.824;18.982;2022-10-17T13:37:01;19.00;79.70
40077;DHT22;25777;47.824;18.982;2022-10-17T13:39:33;18.40;83.80
40077;DHT22;25777;47.824;18.982;2022-10-17T13:42:01;18.70;79.00
40077;DHT22;25777;47.824;18.982;2022-10-17T13:44:32;18.80;78.30
40077;DHT22;25777;47.824;18.982;2022-10-17T13:46:58;19.00;80.00
40077;DHT22;25777;47.824;18.982;2022-10-17T13:49:40;18.70;85.50
40077;DHT22;25777;47.824;18.982;2022-10-17T13:52:15;18.80;80.60
40077;DHT22;25777;47.824;18.982;2022-10-17T13:54:45;18.70;77.90
40077;DHT22;25777;47.824;18.982;2022-10-17T13:57:21;18.60;80.20
40077;DHT22;25777;47.824;18.982;2022-10-17T13:59:53;18.70;81.10
40077;DHT22;25777;47.824;18.982;2022-10-17T14:02:22;18.70;82.40
40077;DHT22;25777;47.824;18.982;2022-10-17T14:10:03;18.10;88.40
40077;DHT22;25777;47.824;18.982;2022-10-17T14:12:32;17.80;90.10
40077;DHT22;25777;47.824;18.982;2022-10-17T14:15:02;17.70;88.60
40077;DHT22;25777;47.824;18.982;2022-10-17T14:17:29;17.40;88.10
40077;DHT22;25777;47.824;18.982;2022-10-17T14:19:58;17.30;91.60
40077;DHT22;25777;47.824;18.982;2022-10-17T14:22:28;17.20;92.10
40077;DHT22;25777;47.824;18.982;2022-10-17T14:24:58;17.10;92.90
40077;DHT22;25777;47.824;18.982;2022-10-17T14:29:53;16.80;95.60
40077;DHT22;25777;47.824;18.982;2022-10-17T14:32:19;16.60;97.30
40077;DHT22;25777;47.824;18.982;2022-10-17T14:34:46;16.40;98.50
40077;DHT22;25777;47.824;18.982;2022-10-17T14:39:49;16.10;99.90
40077;DHT22;25777;47.824;18.982;2022-10-17T14:42:20;15.90;99.90
40077;DHT22;25777;47.824;18.982;2022-10-17T14:44:49;15.80;99.90
40077;DHT22;25777;47.824;18.982;2022-10-17T14:47:19;15.60;99.90
40077;DHT22;25777;47.824;18.982;2022-10-17T14:49:49;15.50;99.90
40077;DHT22;25777;47.824;18.982;2022-10-17T14:54:46;15.20;99.90
40077;DHT22;25777;47.824;18.982;2022-10-17T14:57:25;15.10;99.90
40077;DHT22;25777;47.824;18.982;2022-10-17T14:59:53;15.00;99.90
40077;DHT22;25777;47.824;18.982;2022-10-17T15:02:19;14.90;99.90
40077;DHT22;25777;47.824;18.982;2022-10-17T15:04:45;14.80;99.90
40077;DHT22;25777;47.824;18.982;2022-10-17T15:07:15;14.80;99.90
40077;DHT22;25777;47.824;18.982;2022-10-17T15:09:43;14.80;99.90
40077;DHT22;25777;47.824;18.982;2022-10-17T15:12:16;14.60;99.90
40077;DHT22;25777;47.824;18.982;2022-10-17T15:14:43;14.60;99.90
40077;DHT22;25777;47.824;18.982;2022-10-17T15:17:12;14.50;99.90
40077;DHT22;25777;47.824;18.982;2022-10-17T15:19:38;14.40;99.90
40077;DHT22;25777;47.824;18.982;2022-10-17T15:22:04;14.50;99.90
40077;DHT22;25777;47.824;18.982;2022-10-17T15:24:30;14.40;99.90
40077;DHT22;25777;47.824;18.982;2022-10-17T15:26:56;14.30;99.90
40077;DHT22;25777;47.824;18.982;2022-10-17T15:29:22;14.20;99.90
40077;DHT22;25777;47.824;18.982;2022-10-17T15:31:47;14.20;99.90
40077;DHT22;25777;47.824;18.982;2022-10-17T15:34:13;14.10;99.90
40077;DHT22;25777;47.824;18.982;2022-10-17T15:36:41;14.10;99.90
40077;DHT22;25777;47.824;18.982;2022-10-17T15:39:09;14.00;99.90
40077;DHT22;25777;47.824;18.982;2022-10-17T15:41:35;13.90;99.90
40077;DHT22;25777;47.824;18.982;2022-10-17T15:44:00;13.80;99.90
40077;DHT22;25777;47.824;18.982;2022-10-17T15:46:28;13.70;99.90
40077;DHT22;25777;47.824;18.982;2022-10-17T15:48:56;13.70;99.90
40077;DHT22;25777;47.824;18.982;2022-10-17T15:51:25;13.60;99.90
40077;DHT22;25777;47.824;18.982;2022-10-17T15:53:51;13.60;99.90
40077;DHT22;25777;47.824;18.982;2022-10-17T15:57:02;13.50;99.90
40077;DHT22;25777;47.824;18.982;2022-10-17T15:59:27;13.30;99.90
40077;DHT22;25777;47.824;18.982;2022-10-17T16:01:54;13.30;99.90
40077;DHT22;25777;47.824;18.982;2022-10-17T16:04:20;13.10;99.90
40077;DHT22;25777;47.824;18.982;2022-10-17T16:06:48;13.10;99.90
40077;DHT22;25777;47.824;18.982;2022-10-17T16:09:14;13.00;99.90
40077;DHT22;25777;47.824;18.982;2022-10-17T16:11:42;13.00;99.90
40077;DHT22;25777;47.824;18.982;2022-10-17T16:14:14;12.90;99.90
40077;DHT22;25777;47.824;18.982;2022-10-17T16:16:41;12.80;99.90
40077;DHT22;25777;47.824;18.982;2022-10-17T16:19:07;12.70;99.90
40077;DHT22;25777;47.824;18.982;2022-10-17T16:21:38;12.70;99.90
40077;DHT22;25777;47.824;18.982;2022-10-17T16:24:05;12.60;99.90
40077;DHT22;25777;47.824;18.982;2022-10-17T16:26:31;12.60;99.90
40077;DHT22;25777;47.824;18.982;2022-10-17T16:28:57;12.50;99.90
40077;DHT22;25777;47.824;18.982;2022-10-17T16:31:30;12.40;99.90
40077;DHT22;25777;47.824;18.982;2022-10-17T16:33:57;12.30;99.90
40077;DHT22;25777;47.824;18.982;2022-10-17T16:36:24;12.30;99.90
40077;DHT22;25777;47.824;18.982;2022-10-17T16:38:50;12.20;99.90
40077;DHT22;25777;47.824;18.982;2022-10-17T16:41:22;12.20;99.90
40077;DHT22;25777;47.824;18.982;2022-10-17T16:43:49;12.10;99.90
40077;DHT22;25777;47.824;18.982;2022-10-17T16:46:16;12.10;99.90
40077;DHT22;25777;47.824;18.982;2022-10-17T16:48:43;12.10;99.90
40077;DHT22;25777;47.824;18.982;2022-10-17T16:51:10;12.00;99.90
40077;DHT22;25777;47.824;18.982;2022-10-17T16:53:36;11.90;99.90
40077;DHT22;25777;47.824;18.982;2022-10-17T16:56:12;11.80;99.90
40077;DHT22;25777;47.824;18.982;2022-10-17T16:58:40;11.70;99.90
40077;DHT22;25777;47.824;18.982;2022-10-17T17:01:09;11.70;99.90
40077;DHT22;25777;47.824;18.982;2022-10-17T17:03:41;11.60;99.90
40077;DHT22;25777;47.824;18.982;2022-10-17T17:06:10;11.50;99.90
40077;DHT22;25777;47.824;18.982;2022-10-17T17:08:36;11.50;99.90
40077;DHT22;25777;47.824;18.982;2022-10-17T17:11:05;11.50;99.90
40077;DHT22;25777;47.824;18.982;2022-10-17T17:13:31;11.40;99.90
40077;DHT22;25777;47.824;18.982;2022-10-17T17:16:05;11.40;99.90
40077;DHT22;25777;47.824;18.982;2022-10-17T17:18:31;11.30;99.90
40077;DHT22;25777;47.824;18.982;2022-10-17T17:21:03;11.30;99.90
40077;DHT22;25777;47.824;18.982;2022-10-17T17:23:29;11.20;99.90
40077;DHT22;25777;47.824;18.982;2022-10-17T17:25:57;11.20;99.90
40077;DHT22;25777;47.824;18.982;2022-10-17T17:28:23;11.20;99.90
40077;DHT22;25777;47.824;18.982;2022-10-17T17:30:50;11.10;99.90
40077;DHT22;25777;47.824;18.982;2022-10-17T17:33:16;11.10;99.90
40077;DHT22;25777;47.824;18.982;2022-10-17T17:35:42;11.10;99.90